createdAt,value
2023-03-11T00:01:32.472Z,2.90
2023-03-11T00:06:37.383Z,2.80
2023-03-11T00:11:39.202Z,2.70
2023-03-11T00:16:41.068Z,2.50
2023-03-11T00:21:42.856Z,2.50
2023-03-11T00:26:44.573Z,2.40
2023-03-11T00:31:46.296Z,2.40
2023-03-11T00:36:48.047Z,2.40
2023-03-11T00:41:50.731Z,2.40
2023-03-11T00:46:52.555Z,2.50
2023-03-11T00:51:54.313Z,2.50
2023-03-11T00:56:56.609Z,2.50
2023-03-11T01:01:58.925Z,2.50
2023-03-11T01:07:02.088Z,2.50
2023-03-11T01:12:05.867Z,2.50
2023-03-11T01:17:07.657Z,2.40
2023-03-11T01:22:10.837Z,2.40
2023-03-11T01:27:12.688Z,2.40
2023-03-11T01:32:14.615Z,2.40
2023-03-11T01:37:16.469Z,2.30
2023-03-11T01:42:18.419Z,2.30
2023-03-11T01:47:39.261Z,2.20
2023-03-11T01:52:44.126Z,2.30
2023-03-11T01:57:47.546Z,2.20
2023-03-11T02:02:52.775Z,2.10
2023-03-11T02:07:56.226Z,2.10
2023-03-11T02:13:04.283Z,2.10
2023-03-11T02:18:07.923Z,2.10
2023-03-11T02:23:12.011Z,2.10
2023-03-11T02:28:15.637Z,2.10
2023-03-11T02:33:19.179Z,2.10
2023-03-11T02:38:23.710Z,2.10
2023-03-11T02:43:45.754Z,2.00
2023-03-11T02:48:52.307Z,2.00
2023-03-11T02:53:59.623Z,2.00
2023-03-11T02:59:04.133Z,2.00
2023-03-11T03:04:12.499Z,2.00
2023-03-11T03:09:14.382Z,2.00
2023-03-11T03:14:16.203Z,2.00
2023-03-11T03:19:18.788Z,2.00
2023-03-11T03:24:20.626Z,2.00
2023-03-11T03:29:23.823Z,2.00
2023-03-11T03:34:27.903Z,2.10
2023-03-11T03:39:30.781Z,1.90
2023-03-11T03:44:33.791Z,2.00
2023-03-11T03:49:35.798Z,2.00
2023-03-11T03:54:38.140Z,1.90
2023-03-11T03:59:40.198Z,1.80
2023-03-11T04:04:42.060Z,1.80
2023-03-11T04:09:45.180Z,1.80
2023-03-11T04:14:48.711Z,1.80
2023-03-11T04:19:50.787Z,1.80
2023-03-11T04:24:52.807Z,2.00
2023-03-11T04:29:54.914Z,1.90
2023-03-11T04:34:56.818Z,1.80
2023-03-11T04:39:58.984Z,1.70
2023-03-11T04:45:00.859Z,1.70
2023-03-11T04:50:06.538Z,1.80
2023-03-11T04:55:09.727Z,1.90
2023-03-11T05:00:15.811Z,1.80
2023-03-11T05:05:22.177Z,1.70
2023-03-11T05:10:24.324Z,1.70
2023-03-11T05:15:31.491Z,1.70
2023-03-11T05:20:36.210Z,1.70
2023-03-11T05:25:38.451Z,1.70
2023-03-11T05:30:40.428Z,1.80
2023-03-11T05:35:43.594Z,1.70
2023-03-11T05:40:45.626Z,1.70
2023-03-11T05:45:47.456Z,1.70
2023-03-11T05:50:49.508Z,1.60
2023-03-11T05:55:59.413Z,1.60
2023-03-11T06:01:08.542Z,1.50
2023-03-11T06:06:12.680Z,1.60
2023-03-11T06:11:15.362Z,1.60
2023-03-11T06:16:17.587Z,1.40
2023-03-11T06:21:22.258Z,1.40
2023-03-11T06:26:24.825Z,1.30
2023-03-11T06:31:29.020Z,1.30
2023-03-11T06:36:38.111Z,1.30
2023-03-11T06:41:40.190Z,1.20
2023-03-11T06:46:43.357Z,1.20
2023-03-11T06:51:45.230Z,1.20
2023-03-11T06:56:49.351Z,1.30
2023-03-11T07:01:51.835Z,1.20
2023-03-11T07:06:53.758Z,1.20
2023-03-11T07:11:58.256Z,1.20
2023-03-11T07:17:06.188Z,1.10
2023-03-11T07:22:13.211Z,1.10
2023-03-11T07:27:15.772Z,1.00
2023-03-11T07:32:18.009Z,1.00
2023-03-11T07:37:19.986Z,1.10
2023-03-11T07:42:21.974Z,1.10
2023-03-11T07:47:24.724Z,1.20
2023-03-11T07:52:30.412Z,1.20
2023-03-11T07:57:32.197Z,1.20
2023-03-11T08:02:33.981Z,1.30
2023-03-11T08:07:35.784Z,1.40
2023-03-11T08:12:37.583Z,1.50
2023-03-11T08:17:39.433Z,1.50
2023-03-11T08:22:55.589Z,1.60
2023-03-11T08:27:59.275Z,1.60
2023-03-11T08:33:01.429Z,1.50
2023-03-11T08:38:03.272Z,1.60
2023-03-11T08:43:05.436Z,1.50
2023-03-11T08:48:07.375Z,1.20
2023-03-11T08:53:09.425Z,1.00
2023-03-11T08:58:11.811Z,0.90
2023-03-11T09:03:14.051Z,0.90
2023-03-11T09:08:15.786Z,0.70
2023-03-11T09:13:17.594Z,0.50
2023-03-11T09:18:19.991Z,0.60
2023-03-11T09:23:21.756Z,0.50
2023-03-11T09:28:23.758Z,0.50
2023-03-11T09:33:25.688Z,0.60
2023-03-11T09:38:28.515Z,0.70
2023-03-11T09:43:53.662Z,0.60
2023-03-11T09:49:12.326Z,0.50
2023-03-11T09:54:14.067Z,0.60
2023-03-11T09:59:22.601Z,0.70
2023-03-11T10:04:30.310Z,0.90
2023-03-11T10:09:46.501Z,1.10
2023-03-11T10:15:05.756Z,1.20
2023-03-11T10:20:44.676Z,1.40
2023-03-11T10:25:56.302Z,1.60
2023-03-11T10:31:05.973Z,1.90
2023-03-11T10:36:14.236Z,2.00
2023-03-11T10:41:50.712Z,2.10
2023-03-11T10:46:52.446Z,2.20
2023-03-11T10:51:55.786Z,2.40
2023-03-11T10:57:20.714Z,2.60
2023-03-11T11:02:44.288Z,2.80
2023-03-11T11:08:03.724Z,3.00
2023-03-11T11:13:18.578Z,2.90
2023-03-11T11:18:22.451Z,2.90
2023-03-11T11:23:41.682Z,3.10
2023-03-11T11:28:44.307Z,3.10
2023-03-11T11:33:52.114Z,3.00
2023-03-11T11:38:54.832Z,3.00
2023-03-11T11:44:01.497Z,3.10
2023-03-11T11:49:27.250Z,3.20
2023-03-11T11:55:13.194Z,3.20
2023-03-11T12:00:38.524Z,3.40
2023-03-11T12:06:07.129Z,3.60
2023-03-11T12:11:32.659Z,3.50
2023-03-11T12:17:11.132Z,3.40
2023-03-11T12:22:24.765Z,3.00
2023-03-11T12:27:51.092Z,2.90
2023-03-11T12:33:17.271Z,2.90
2023-03-11T12:38:33.249Z,2.70
2023-03-11T12:43:35.000Z,2.60
2023-03-11T12:48:52.243Z,2.70
2023-03-11T12:53:55.443Z,2.60
2023-03-11T12:59:19.800Z,2.70
2023-03-11T13:04:33.127Z,2.80
2023-03-11T13:09:35.124Z,2.90
2023-03-11T13:14:37.561Z,2.90
2023-03-11T13:19:48.948Z,2.90
2023-03-11T13:24:51.605Z,3.00
2023-03-11T13:30:01.363Z,3.10
2023-03-11T13:35:24.498Z,3.10
2023-03-11T13:40:40.653Z,3.10
2023-03-11T13:45:59.450Z,3.20
2023-03-11T13:51:06.678Z,3.40
2023-03-11T13:56:21.226Z,3.30
2023-03-11T14:01:23.464Z,3.30
2023-03-11T14:06:30.150Z,3.30
2023-03-11T14:11:31.947Z,3.10
2023-03-11T14:16:43.811Z,3.00
2023-03-11T14:21:47.664Z,2.90
2023-03-11T14:26:55.143Z,2.80
2023-03-11T14:31:57.742Z,2.80
2023-03-11T14:37:01.005Z,2.80
2023-03-11T14:42:13.636Z,2.90
2023-03-11T14:47:36.878Z,2.90
2023-03-11T14:52:44.677Z,2.80
2023-03-11T14:58:11.335Z,2.70
2023-03-11T15:03:17.589Z,2.70
2023-03-11T15:08:22.635Z,2.70
2023-03-11T15:13:24.568Z,2.60
2023-03-11T15:18:32.114Z,2.50
2023-03-11T15:23:34.862Z,2.60
2023-03-11T15:28:38.512Z,2.50
2023-03-11T15:33:40.950Z,2.50
2023-03-11T15:38:42.772Z,2.40
2023-03-11T15:43:48.159Z,2.50
2023-03-11T15:48:49.983Z,2.40
2023-03-11T15:53:51.787Z,2.40
2023-03-11T15:58:53.593Z,2.50
2023-03-11T16:03:56.125Z,2.40
2023-03-11T16:08:58.012Z,2.40
2023-03-11T16:14:00.336Z,2.50
2023-03-11T16:19:02.046Z,2.50
2023-03-11T16:24:05.759Z,2.50
2023-03-11T16:29:18.658Z,2.50
2023-03-11T16:34:21.154Z,2.40
2023-03-11T16:39:22.930Z,2.30
2023-03-11T16:44:24.734Z,2.30
2023-03-11T16:49:26.586Z,2.20
2023-03-11T16:54:28.394Z,2.30
2023-03-11T16:59:30.247Z,2.30
2023-03-11T17:04:33.813Z,2.20
2023-03-11T17:09:35.986Z,2.00
2023-03-11T17:14:37.760Z,2.00
2023-03-11T17:19:39.670Z,2.00
2023-03-11T17:24:41.486Z,2.00
2023-03-11T17:29:43.352Z,1.90
2023-03-11T17:34:45.162Z,1.90
2023-03-11T17:39:47.013Z,2.00
2023-03-11T17:44:51.972Z,2.00
2023-03-11T17:49:54.307Z,1.90
2023-03-11T17:54:57.147Z,1.80
2023-03-11T18:00:05.849Z,1.80
2023-03-11T18:05:09.162Z,1.60
2023-03-11T18:10:11.857Z,1.40
2023-03-11T18:15:18.838Z,1.40
2023-03-11T18:20:20.679Z,1.30
2023-03-11T18:25:22.510Z,1.30
2023-03-11T18:30:24.690Z,1.30
2023-03-11T18:35:26.533Z,1.30
2023-03-11T18:40:28.347Z,1.20
2023-03-11T18:45:30.516Z,1.20
2023-03-11T18:50:32.490Z,1.30
2023-03-11T18:55:35.230Z,1.30
2023-03-11T19:00:37.095Z,1.30
2023-03-11T19:05:39.916Z,1.30
2023-03-11T19:10:42.874Z,1.30
2023-03-11T19:15:45.388Z,1.20
2023-03-11T19:20:59.442Z,1.10
2023-03-11T19:26:03.545Z,1.10
2023-03-11T19:31:06.020Z,1.10
2023-03-11T19:36:09.072Z,1.10
2023-03-11T19:41:18.381Z,1.10
2023-03-11T19:46:21.825Z,1.10
2023-03-11T19:51:28.443Z,1.10
2023-03-11T19:56:32.564Z,0.90
2023-03-11T20:01:34.296Z,0.80
2023-03-11T20:06:36.139Z,0.70
2023-03-11T20:11:40.013Z,0.60
2023-03-11T20:16:42.119Z,0.70
2023-03-11T20:21:45.778Z,0.80
2023-03-11T20:26:50.034Z,0.80
2023-03-11T20:31:53.156Z,0.80
2023-03-11T20:36:55.107Z,0.70
2023-03-11T20:41:57.041Z,0.70
2023-03-11T20:46:58.944Z,0.70
2023-03-11T20:52:03.002Z,0.70
2023-03-11T20:57:04.788Z,0.60
2023-03-11T21:02:08.989Z,0.60
2023-03-11T21:07:11.178Z,0.50
2023-03-11T21:12:13.123Z,0.40
2023-03-11T21:17:15.680Z,0.40
2023-03-11T21:22:17.841Z,0.30
2023-03-11T21:27:26.498Z,0.10
2023-03-11T21:32:29.105Z,0.10
2023-03-11T21:37:31.036Z,0.00
2023-03-11T21:42:33.066Z,0.00
2023-03-11T21:47:36.768Z,0.00
2023-03-11T21:52:38.576Z,-0.10
2023-03-11T21:57:40.515Z,-0.20
2023-03-11T22:02:42.369Z,-0.30
2023-03-11T22:07:44.486Z,-0.40
2023-03-11T22:12:46.325Z,-0.40
2023-03-11T22:17:48.368Z,-0.50
2023-03-11T22:22:50.226Z,-0.50
2023-03-11T22:27:52.063Z,-0.50
2023-03-11T22:32:53.925Z,-0.50
2023-03-11T22:38:21.083Z,-0.50
2023-03-11T22:43:23.237Z,-0.40
2023-03-11T22:48:25.151Z,-0.40
2023-03-11T22:53:27.145Z,-0.40
2023-03-11T22:58:29.007Z,-0.50
2023-03-11T23:03:32.442Z,-0.60
2023-03-11T23:08:34.699Z,-0.70
2023-03-11T23:13:37.419Z,-0.80
2023-03-11T23:18:39.874Z,-0.70
2023-03-11T23:23:41.632Z,-0.80
2023-03-11T23:28:44.419Z,-0.90
2023-03-11T23:33:46.241Z,-1.00
2023-03-11T23:38:50.729Z,-1.00
2023-03-11T23:43:52.673Z,-1.00
2023-03-11T23:48:54.501Z,-1.00
2023-03-11T23:53:56.433Z,-1.00
2023-03-11T23:58:58.215Z,-1.10
